Time;durP1;ratioP1;P1;durP2;ratioP2;P2;SDS_P1;SDS_P2;PMS_P1;PMS_P2;Temp;Humidity;BMP_temperature;BMP_pressure;BME280_temperature;BME280_humidity;BME280_pressure;Samples;Min_cycle;Max_cycle;Signal;HPM_P1;HPM_P2
2023/01/03 00:01:10;;;;;;;;;;;;;;;18.63;47.94;102193.16;5153639;27;19930;-57
2023/01/03 00:03:35;;;;;;;;;;;;;;;18.62;47.68;102191.47;5153107;27;19923;-56
2023/01/03 00:06:01;;;;;;;;;;;;;;;18.63;47.93;102187.63;5151261;27;20324;-56
2023/01/03 00:08:27;;;;;;;;;;;;;;;18.63;47.72;102193.16;5153137;27;19923;-56
2023/01/03 00:10:53;;;;;;;;;;;;;;;18.61;47.97;102190.66;5153521;27;20019;-56
2023/01/03 00:13:18;;;;;;;;;;;;;;;18.62;47.80;102191.47;5153065;27;20041;-56
2023/01/03 00:15:44;;;;;;;;;;;;;;;18.61;47.89;102196.16;5148043;27;19931;-56
2023/01/03 00:18:09;;;;;;;;;;;;;;;18.61;47.53;102181.50;5153198;27;19946;-56
2023/01/03 00:20:35;;;;;;;;;;;;;;;18.62;47.94;102197.84;5153460;27;19971;-56
2023/01/03 00:23:01;;;;;;;;;;;;;;;18.62;47.74;102191.47;5153242;27;19949;-56
2023/01/03 00:25:26;;;;;;;;;;;;;;;18.62;47.65;102195.09;5141961;27;19976;-55
2023/01/03 00:27:52;;;;;;;;;;;;;;;18.62;47.96;102197.84;5115263;27;19927;-56
2023/01/03 00:30:17;;;;;;;;;;;;;;;18.62;47.83;102197.84;5134189;27;20332;-56
2023/01/03 00:32:43;;;;;;;;;;;;;;;18.62;47.58;102199.75;5134503;27;19930;-56
2023/01/03 00:35:09;;;;;;;;;;;;;;;18.62;47.95;102194.25;5144297;27;19928;-56
2023/01/03 00:37:34;;;;;;;;;;;;;;;18.62;47.69;102200.59;5132420;28;19929;-56
2023/01/03 00:40:00;;;;;;;;;;;;;;;18.62;47.97;102192.31;5132240;28;19972;-56
2023/01/03 00:42:25;;;;;;;;;;;;;;;18.62;47.78;102203.34;5132053;28;19934;-56
2023/01/03 00:44:51;;;;;;;;;;;;;;;18.62;47.70;102200.59;5132063;27;19931;-56
2023/01/03 00:47:16;;;;;;;;;;;;;;;18.62;47.79;102200.59;5132037;28;19924;-56
2023/01/03 00:49:42;;;;;;;;;;;;;;;18.62;47.60;102199.75;5132244;28;19927;-56
2023/01/03 00:52:07;;;;;;;;;;;;;;;18.61;47.95;102201.69;5132170;28;19927;-56
2023/01/03 00:54:33;;;;;;;;;;;;;;;18.62;47.90;102206.13;5131416;27;19931;-56
2023/01/03 00:56:59;;;;;;;;;;;;;;;18.62;47.65;102199.75;5135151;27;19923;-55
2023/01/03 00:59:24;;;;;;;;;;;;;;;18.62;47.71;102208.88;5152142;27;19923;-56
2023/01/03 01:01:52;;;;;;;;;;;;;;;18.62;47.94;102208.88;5152908;27;19976;-56
2023/01/03 01:04:20;;;;;;;;;;;;;;;18.63;47.61;102206.94;5150471;27;20375;-56
2023/01/03 01:06:47;;;;;;;;;;;;;;;18.62;47.75;102211.63;5113454;28;19923;-56
2023/01/03 01:09:13;;;;;;;;;;;;;;;18.62;47.72;102222.66;5131873;28;19934;-56
2023/01/03 01:11:39;;;;;;;;;;;;;;;18.62;47.82;102225.44;5113280;28;20283;-56
2023/01/03 01:14:20;;;;;;;;;;;;;;;18.62;47.69;102225.44;5113545;28;19963;-56
2023/01/03 01:16:49;;;;;;;;;;;;;;;18.62;47.72;102233.72;5161630;27;19923;-56
2023/01/03 01:19:15;;;;;;;;;;;;;;;18.63;47.87;102231.78;5149069;27;19958;-56
2023/01/03 01:21:40;;;;;;;;;;;;;;;18.62;47.80;102236.47;5151121;27;19939;-55
2023/01/03 01:24:06;;;;;;;;;;;;;;;18.62;47.85;102233.72;5133290;27;20021;-56
2023/01/03 01:26:31;;;;;;;;;;;;;;;18.62;47.77;102238.38;5152016;27;19934;-56
2023/01/03 01:28:57;;;;;;;;;;;;;;;18.62;47.81;102243.91;5151736;27;19923;-56
2023/01/03 01:31:23;;;;;;;;;;;;;;;18.62;47.82;102239.22;5152285;27;20336;-56
2023/01/03 01:33:49;;;;;;;;;;;;;;;18.63;47.93;102251.09;5133479;27;19923;-56
2023/01/03 01:36:16;;;;;;;;;;;;;;;18.62;47.80;102253.03;5133411;27;19977;-56
2023/01/03 01:38:42;;;;;;;;;;;;;;;18.62;47.89;102254.94;5152028;27;19982;-56
2023/01/03 01:41:10;;;;;;;;;;;;;;;18.62;47.83;102250.25;5151786;27;20026;-56
2023/01/03 01:46:38;;;;;;;;;;;;;;;18.62;47.65;102260.47;5115900;28;19965;-56
2023/01/03 01:49:04;;;;;;;;;;;;;;;18.62;47.77;102275.09;5131215;28;19923;-56
2023/01/03 01:51:31;;;;;;;;;;;;;;;18.63;47.88;102276.75;5112323;28;19924;-56
2023/01/03 01:53:58;;;;;;;;;;;;;;;18.63;47.98;102281.44;5130686;28;19928;-56
2023/01/03 01:56:25;;;;;;;;;;;;;;;18.63;47.71;102281.44;5149435;27;19946;-56
2023/01/03 01:58:51;;;;;;;;;;;;;;;18.61;47.77;102287.22;5151127;27;19970;-56
2023/01/03 02:01:17;;;;;;;;;;;;;;;18.61;47.81;102289.97;5152019;27;19923;-56
2023/01/03 02:03:43;;;;;;;;;;;;;;;18.63;47.86;102286.97;5151518;27;19927;-56
2023/01/03 02:06:10;;;;;;;;;;;;;;;18.63;47.80;102284.22;5151636;27;19923;-56
2023/01/03 02:08:35;;;;;;;;;;;;;;;18.61;47.81;102278.94;5133212;27;19926;-56
2023/01/03 02:13:58;;;;;;;;;;;;;;;18.62;47.83;102286.13;5192485;27;19925;-56
2023/01/03 02:16:36;;;;;;;;;;;;;;;18.62;47.70;102288.88;5153207;27;19923;-56
2023/01/03 02:19:09;;;;;;;;;;;;;;;18.62;47.83;102288.88;5170766;27;20018;-56
2023/01/03 02:21:55;;;;;;;;;;;;;;;18.62;47.87;102291.66;5189443;27;19923;-56
2023/01/03 02:24:25;;;;;;;;;;;;;;;18.62;47.87;102290.81;5186024;27;19934;-56
2023/01/03 02:27:00;;;;;;;;;;;;;;;18.62;47.61;102294.41;5168347;27;19923;-56
2023/01/03 02:29:45;;;;;;;;;;;;;;;18.63;47.68;102301.59;5183050;27;20306;-56
2023/01/03 02:32:15;;;;;;;;;;;;;;;18.62;47.98;102294.41;5173623;27;20016;-56
2023/01/03 02:34:46;;;;;;;;;;;;;;;18.63;47.89;102295.25;5188902;27;20414;-56
2023/01/03 02:37:32;;;;;;;;;;;;;;;18.63;47.60;102300.75;5189350;27;19971;-56
2023/01/03 02:40:00;;;;;;;;;;;;;;;18.63;47.62;102300.75;5173606;27;19973;-56
2023/01/03 02:43:01;;;;;;;;;;;;;;;18.62;47.69;102299.09;5189386;27;20007;-56
2023/01/03 02:45:17;;;;;;;;;;;;;;;18.62;47.61;102301.84;5173257;27;20396;-56
2023/01/03 02:47:45;;;;;;;;;;;;;;;18.63;47.85;102298.00;5189405;27;19929;-56
2023/01/03 02:50:11;;;;;;;;;;;;;;;18.62;47.59;102294.41;5188998;27;20298;-55
2023/01/03 02:52:36;;;;;;;;;;;;;;;18.62;47.73;102294.41;5170466;27;19926;-56
2023/01/03 02:55:04;;;;;;;;;;;;;;;18.62;47.73;102302.69;5188228;27;19923;-56
2023/01/03 02:57:33;;;;;;;;;;;;;;;18.62;47.63;102297.16;5188745;27;19923;-56
2023/01/03 03:00:06;;;;;;;;;;;;;;;18.63;47.61;102300.75;5188330;27;19941;-56
2023/01/03 03:02:32;;;;;;;;;;;;;;;18.62;47.86;102293.56;5166058;27;19935;-56
2023/01/03 03:04:58;;;;;;;;;;;;;;;18.62;47.64;102294.41;5167662;27;19937;-56
2023/01/03 03:07:24;;;;;;;;;;;;;;;18.62;47.78;102299.09;5168058;27;19923;-56
2023/01/03 03:15:22;;;;;;;;;;;;;;;18.63;47.85;102309.03;5131056;27;19935;-56
2023/01/03 03:17:48;;;;;;;;;;;;;;;18.62;47.86;102299.94;5128401;27;20078;-56
2023/01/03 03:25:49;;;;;;;;;;;;;;;18.62;47.78;102305.44;5117204;28;20362;-56
2023/01/03 03:28:46;;;;;;;;;;;;;;;18.62;47.72;102308.19;5137571;27;19966;-55
2023/01/03 03:31:17;;;;;;;;;;;;;;;18.62;47.83;102302.69;5137524;27;19959;-56
2023/01/03 03:33:46;;;;;;;;;;;;;;;18.61;47.87;102298.25;5153530;27;19975;-56
2023/01/03 03:36:14;;;;;;;;;;;;;;;18.62;47.83;102302.69;5153485;27;19968;-56
2023/01/03 03:38:42;;;;;;;;;;;;;;;18.62;47.70;102299.94;5134876;27;20342;-56
2023/01/03 03:46:49;;;;;;;;;;;;;;;18.62;47.55;102304.63;5137949;27;19923;-56
2023/01/03 03:49:51;;;;;;;;;;;;;;;18.62;47.53;102304.63;5153338;27;19969;-56
2023/01/03 03:52:08;;;;;;;;;;;;;;;18.63;47.56;102303.53;5137687;27;20264;-56
2023/01/03 03:54:33;;;;;;;;;;;;;;;18.62;47.73;102301.84;5133977;27;20651;-56
2023/01/03 03:57:02;;;;;;;;;;;;;;;18.62;47.78;102299.94;5153243;27;19927;-56
2023/01/03 03:59:27;;;;;;;;;;;;;;;18.62;47.54;102296.34;5152716;27;19927;-56
2023/01/03 04:01:53;;;;;;;;;;;;;;;18.63;47.78;102300.75;5153324;27;20414;-56
2023/01/03 04:04:20;;;;;;;;;;;;;;;18.62;47.59;102288.88;5152483;27;19931;-55
2023/01/03 04:06:47;;;;;;;;;;;;;;;18.62;47.76;102302.69;5152888;27;19927;-56
2023/01/03 04:09:13;;;;;;;;;;;;;;;18.63;47.83;102303.53;5134629;27;19924;-56
2023/01/03 04:11:38;;;;;;;;;;;;;;;18.62;47.78;102304.63;5152978;27;19988;-56
2023/01/03 04:14:04;;;;;;;;;;;;;;;18.62;47.72;102310.13;5152408;27;19938;-56
2023/01/03 04:16:29;;;;;;;;;;;;;;;18.62;47.68;102307.38;5152779;27;19923;-56
2023/01/03 04:18:55;;;;;;;;;;;;;;;18.63;47.55;102306.28;5152557;27;19930;-56
2023/01/03 04:21:20;;;;;;;;;;;;;;;18.62;47.53;102310.13;5151906;27;19959;-56
2023/01/03 04:23:46;;;;;;;;;;;;;;;18.63;47.86;102309.03;5151960;27;19930;-56
2023/01/03 04:26:12;;;;;;;;;;;;;;;18.62;47.60;102310.13;5121311;27;20301;-56
2023/01/03 04:28:37;;;;;;;;;;;;;;;18.62;47.60;102307.38;5139535;27;19923;-56
2023/01/03 04:31:03;;;;;;;;;;;;;;;18.61;47.68;102303.78;5152799;27;19933;-56
2023/01/03 04:33:28;;;;;;;;;;;;;;;18.62;47.74;102299.09;5152840;27;19934;-56
2023/01/03 04:35:54;;;;;;;;;;;;;;;18.62;47.45;102291.66;5136138;27;20360;-56
2023/01/03 04:38:19;;;;;;;;;;;;;;;18.62;47.77;102302.69;5131717;28;19924;-56
2023/01/03 04:40:45;;;;;;;;;;;;;;;18.62;47.54;102301.84;5131442;28;19931;-56
2023/01/03 04:44:21;;;;;;;;;;;;;;;18.61;47.78;102306.53;5136258;27;20299;-56
2023/01/03 04:45:56;;;;;;;;;;;;;;;18.63;47.54;102306.28;5136605;27;19962;-56
2023/01/03 04:48:22;;;;;;;;;;;;;;;18.61;47.69;102309.28;5133189;27;19950;-56
2023/01/03 04:50:55;;;;;;;;;;;;;;;18.62;47.78;102310.13;5152122;27;19923;-56
2023/01/03 04:53:21;;;;;;;;;;;;;;;18.61;47.49;102305.66;5151873;27;19967;-56
2023/01/03 04:55:48;;;;;;;;;;;;;;;18.62;47.79;102310.97;5151481;27;20319;-56
2023/01/03 04:58:13;;;;;;;;;;;;;;;18.62;47.62;102302.69;5152370;27;20263;-56
2023/01/03 05:00:39;;;;;;;;;;;;;;;18.62;47.70;102307.38;5151895;27;20435;-56
2023/01/03 05:03:05;;;;;;;;;;;;;;;18.62;47.75;102313.72;5151529;27;19923;-56
2023/01/03 05:05:30;;;;;;;;;;;;;;;18.62;47.69;102313.72;5151269;27;19923;-56
2023/01/03 05:07:56;;;;;;;;;;;;;;;18.63;47.72;102309.88;5152124;27;19927;-56
2023/01/03 05:10:21;;;;;;;;;;;;;;;18.62;47.73;102310.97;5152237;27;19923;-56
2023/01/03 05:12:58;;;;;;;;;;;;;;;18.63;47.79;102311.81;5151876;27;19923;-56
2023/01/03 05:15:24;;;;;;;;;;;;;;;18.62;47.72;102304.63;5151016;27;19930;-56
2023/01/03 05:17:50;;;;;;;;;;;;;;;18.62;47.46;102310.13;5152092;27;19966;-56
2023/01/03 05:25:49;;;;;;;;;;;;;;;18.62;47.43;102310.97;5134597;27;19970;-56
2023/01/03 05:28:15;;;;;;;;;;;;;;;18.62;47.70;102308.19;5151516;27;20283;-56
2023/01/03 05:30:43;;;;;;;;;;;;;;;18.62;47.51;102308.19;5133183;27;19923;-56
2023/01/03 05:33:08;;;;;;;;;;;;;;;18.62;47.63;102308.19;5151735;27;19945;-56
2023/01/03 05:35:34;;;;;;;;;;;;;;;18.62;47.65;102308.19;5150852;27;20427;-56
2023/01/03 05:37:59;;;;;;;;;;;;;;;18.62;47.71;102310.97;5151816;27;19923;-56
2023/01/03 05:40:25;;;;;;;;;;;;;;;18.62;47.62;102304.63;5151741;27;20412;-56
2023/01/03 05:42:50;;;;;;;;;;;;;;;18.62;47.61;102305.44;5144387;27;19930;-56
2023/01/03 05:45:16;;;;;;;;;;;;;;;18.61;47.77;102298.25;5161415;27;19927;-56
2023/01/03 05:47:41;;;;;;;;;;;;;;;18.61;47.69;102295.50;5150940;27;19930;-56
2023/01/03 05:50:07;;;;;;;;;;;;;;;18.62;47.43;102299.09;5151184;27;19983;-56
2023/01/03 05:52:33;;;;;;;;;;;;;;;18.62;47.78;102293.56;5151277;27;19927;-56
2023/01/03 05:54:58;;;;;;;;;;;;;;;18.63;47.47;102298.00;5150699;27;19927;-56
2023/01/03 05:57:24;;;;;;;;;;;;;;;18.62;47.52;102296.34;5151577;27;19927;-56
2023/01/03 05:59:49;;;;;;;;;;;;;;;18.62;47.73;102296.34;5150930;27;20287;-56
2023/01/03 06:02:15;;;;;;;;;;;;;;;18.62;47.50;102293.56;5151432;27;19931;-56
2023/01/03 06:04:41;;;;;;;;;;;;;;;18.62;47.44;102293.56;5150387;27;20287;-56
2023/01/03 06:07:06;;;;;;;;;;;;;;;18.61;47.38;102298.25;5151328;27;19987;-56
2023/01/03 06:09:32;;;;;;;;;;;;;;;18.61;47.61;102306.53;5151144;27;20287;-56
2023/01/03 06:11:57;;;;;;;;;;;;;;;18.62;47.50;102310.13;5151223;27;19923;-56
2023/01/03 06:14:23;;;;;;;;;;;;;;;18.62;47.64;102308.19;5150826;27;20793;-56
2023/01/03 06:19:34;;;;;;;;;;;;;;;18.62;47.65;102305.44;5134634;27;20014;-56
2023/01/03 06:22:00;;;;;;;;;;;;;;;18.61;47.39;102295.50;5151050;27;19930;-56
2023/01/03 06:24:33;;;;;;;;;;;;;;;18.62;47.69;102293.56;5150450;27;19942;-56
2023/01/03 06:26:59;;;;;;;;;;;;;;;18.62;47.51;102304.63;5150303;27;19928;-56
2023/01/03 06:29:24;;;;;;;;;;;;;;;18.61;47.38;102306.53;5150110;27;19931;-56
2023/01/03 06:31:50;;;;;;;;;;;;;;;18.62;47.54;102310.97;5150507;27;20103;-56
2023/01/03 06:34:16;;;;;;;;;;;;;;;18.61;47.63;102303.78;5150879;27;20282;-56
2023/01/03 06:36:41;;;;;;;;;;;;;;;18.61;47.71;102306.53;5150871;27;19927;-56
2023/01/03 06:39:07;;;;;;;;;;;;;;;18.62;47.60;102310.13;5150764;27;20272;-56
2023/01/03 06:41:33;;;;;;;;;;;;;;;18.61;47.62;102314.81;5150864;27;19930;-56
2023/01/03 06:43:58;;;;;;;;;;;;;;;18.61;47.50;102311.19;5150907;27;20290;-56
2023/01/03 06:54:48;;;;;;;;;;;;;;;18.62;47.54;102301.84;5120057;27;19966;-56
2023/01/03 06:57:14;;;;;;;;;;;;;;;18.61;47.64;102301.00;5150653;27;19930;-56
2023/01/03 06:59:52;;;;;;;;;;;;;;;18.62;47.55;102307.38;5135566;27;19996;-56
2023/01/03 07:02:17;;;;;;;;;;;;;;;18.62;47.64;102304.63;5153541;27;20264;-56
2023/01/03 07:04:43;;;;;;;;;;;;;;;18.61;47.63;102301.00;5153710;27;19930;-56
2023/01/03 07:07:09;;;;;;;;;;;;;;;18.62;47.58;102299.94;5154195;27;19930;-56
2023/01/03 07:09:34;;;;;;;;;;;;;;;18.62;47.61;102291.66;5154092;27;19930;-56
2023/01/03 07:13:57;;;;;;;;;;;;;;;18.62;47.68;102299.94;5153458;27;20284;-56
2023/01/03 07:14:45;;;;;;;;;;;;;;;18.62;47.44;102293.56;5137783;27;19923;-56
2023/01/03 07:17:15;;;;;;;;;;;;;;;18.62;47.56;102301.84;5154051;27;19952;-56
2023/01/03 07:19:40;;;;;;;;;;;;;;;18.62;47.52;102297.16;5154095;27;19923;-56
2023/01/03 07:22:06;;;;;;;;;;;;;;;18.62;47.79;102305.44;5154002;27;20003;-56
2023/01/03 07:24:31;;;;;;;;;;;;;;;18.61;47.45;102309.28;5152767;27;19934;-56
2023/01/03 07:26:57;;;;;;;;;;;;;;;18.62;47.59;102312.88;5153801;27;19976;-56
2023/01/03 07:29:22;;;;;;;;;;;;;;;18.62;47.36;102307.38;5152542;27;19924;-56
2023/01/03 07:31:48;;;;;;;;;;;;;;;18.62;47.58;102307.38;5153670;27;19927;-56
2023/01/03 07:34:14;;;;;;;;;;;;;;;18.61;47.46;102306.53;5153367;27;19930;-56
2023/01/03 07:36:39;;;;;;;;;;;;;;;18.61;47.47;102312.06;5153408;27;19979;-56
2023/01/03 07:39:05;;;;;;;;;;;;;;;18.62;47.58;102310.13;5153604;27;20293;-56
2023/01/03 07:44:16;;;;;;;;;;;;;;;18.62;47.41;102312.88;5137754;27;20378;-56
2023/01/03 07:46:41;;;;;;;;;;;;;;;18.61;47.65;102309.28;5152985;27;19963;-56
2023/01/03 07:49:07;;;;;;;;;;;;;;;18.62;47.72;102315.66;5153597;27;19923;-56
2023/01/03 07:51:37;;;;;;;;;;;;;;;18.61;47.68;102317.56;5153523;27;19971;-56
2023/01/03 07:54:03;;;;;;;;;;;;;;;18.62;47.48;102323.94;5133997;27;19927;-56
2023/01/03 07:56:28;;;;;;;;;;;;;;;18.62;47.37;102318.41;5152398;27;19927;-56
2023/01/03 07:58:54;;;;;;;;;;;;;;;18.61;47.70;102319.47;5152648;27;20374;-56
2023/01/03 08:01:20;;;;;;;;;;;;;;;18.61;47.68;102323.09;5153092;27;19927;-56
2023/01/03 08:03:46;;;;;;;;;;;;;;;18.62;47.59;102318.41;5134041;27;20319;-56
2023/01/03 08:06:13;;;;;;;;;;;;;;;18.61;47.61;102320.34;5134063;27;20371;-56
2023/01/03 08:08:39;;;;;;;;;;;;;;;18.61;47.77;102336.88;5134371;27;19923;-56
2023/01/03 08:13:50;;;;;;;;;;;;;;;18.61;47.46;102325.84;5137141;27;19972;-56
2023/01/03 08:16:17;;;;;;;;;;;;;;;18.61;47.62;102322.22;5152698;27;19923;-56
2023/01/03 08:18:42;;;;;;;;;;;;;;;18.62;47.68;102332.19;5153010;27;20009;-56
2023/01/03 08:21:10;;;;;;;;;;;;;;;18.62;47.67;102329.44;5134358;27;19923;-56
2023/01/03 08:23:35;;;;;;;;;;;;;;;18.61;47.57;102328.59;5133813;27;19930;-56
2023/01/03 08:26:02;;;;;;;;;;;;;;;18.61;47.39;102334.13;5152891;27;19923;-56
2023/01/03 08:28:28;;;;;;;;;;;;;;;18.62;47.67;102323.94;5152199;27;20281;-56
2023/01/03 08:30:53;;;;;;;;;;;;;;;18.62;47.55;102324.75;5133641;27;20405;-56
2023/01/03 08:33:19;;;;;;;;;;;;;;;18.62;47.59;102321.16;5152875;27;19937;-56
2023/01/03 08:35:46;;;;;;;;;;;;;;;18.62;47.62;102338.56;5152479;27;19970;-56
2023/01/03 08:38:14;;;;;;;;;;;;;;;18.62;47.37;102329.44;5152737;27;19965;-56
2023/01/03 08:40:39;;;;;;;;;;;;;;;18.61;47.54;102331.38;5134051;27;19931;-56
2023/01/03 08:43:07;;;;;;;;;;;;;;;18.62;47.67;102334.97;5152633;27;19927;-56
2023/01/03 08:45:33;;;;;;;;;;;;;;;18.62;47.34;102332.19;5152352;27;19927;-56
2023/01/03 08:48:00;;;;;;;;;;;;;;;18.61;47.68;102345.16;5152644;27;19979;-56
2023/01/03 08:50:26;;;;;;;;;;;;;;;18.61;47.37;102345.16;5134049;27;19950;-56
2023/01/03 08:52:51;;;;;;;;;;;;;;;18.62;47.47;102346.00;5152244;27;19934;-56
2023/01/03 08:55:17;;;;;;;;;;;;;;;18.62;47.44;102349.59;5151562;27;19927;-56
2023/01/03 08:57:42;;;;;;;;;;;;;;;18.61;47.61;102352.56;5152423;27;19923;-56
2023/01/03 09:00:08;;;;;;;;;;;;;;;18.61;47.65;102358.97;5151798;27;19927;-56
2023/01/03 09:02:35;;;;;;;;;;;;;;;18.61;47.46;102356.19;5151512;27;20004;-56
2023/01/03 09:05:01;;;;;;;;;;;;;;;18.62;47.44;102357.88;5151715;27;19927;-56
2023/01/03 09:07:26;;;;;;;;;;;;;;;18.61;47.33;102358.97;5133408;27;20000;-56
2023/01/03 09:09:52;;;;;;;;;;;;;;;18.62;47.29;102359.78;5152291;27;19923;-56
2023/01/03 09:12:17;;;;;;;;;;;;;;;18.61;47.47;102366.38;5151506;27;19923;-56
2023/01/03 09:14:43;;;;;;;;;;;;;;;18.62;47.38;102362.56;5151410;27;19927;-56
2023/01/03 09:17:08;;;;;;;;;;;;;;;18.62;47.41;102366.16;5152278;27;19927;-56
2023/01/03 09:19:34;;;;;;;;;;;;;;;18.61;47.69;102356.19;5151660;27;19927;-56
2023/01/03 09:22:00;;;;;;;;;;;;;;;18.61;47.54;102367.25;5151299;27;20371;-56
2023/01/03 09:24:25;;;;;;;;;;;;;;;18.61;47.66;102364.47;5151094;27;19923;-56
2023/01/03 09:26:51;;;;;;;;;;;;;;;18.61;47.48;102363.63;5151679;27;20328;-56
2023/01/03 09:29:20;;;;;;;;;;;;;;;18.62;47.46;102374.44;5151478;27;20363;-56
2023/01/03 09:31:45;;;;;;;;;;;;;;;18.61;47.51;102364.47;5151492;27;19923;-56
2023/01/03 09:34:11;;;;;;;;;;;;;;;18.64;47.61;102366.72;5150841;27;19927;-56
2023/01/03 09:36:37;;;;;;;;;;;;;;;18.65;47.75;102364.81;5151340;27;19934;-56
2023/01/03 09:39:03;;;;;;;;;;;;;;;18.63;47.64;102358.72;5151713;27;19923;-57
2023/01/03 09:41:28;;;;;;;;;;;;;;;18.63;47.81;102359.53;5151753;27;19930;-56
2023/01/03 09:43:55;;;;;;;;;;;;;;;18.62;47.78;102362.56;5151656;27;20268;-56
2023/01/03 09:46:21;;;;;;;;;;;;;;;18.63;47.59;102366.97;5132748;27;20379;-56
2023/01/03 09:48:47;;;;;;;;;;;;;;;18.63;47.79;102366.97;5132958;27;20534;-56
2023/01/03 10:05:11;;;;;;;;;;;;;;;18.62;47.81;102374.44;5189201;27;20404;-56
2023/01/03 10:07:45;;;;;;;;;;;;;;;18.62;47.76;102368.91;5188995;27;20352;-56
2023/01/03 10:10:14;;;;;;;;;;;;;;;18.62;47.56;102371.66;5189690;27;19926;-56
2023/01/03 10:12:44;;;;;;;;;;;;;;;18.62;47.68;102376.34;5189480;27;20354;-56
2023/01/03 10:15:14;;;;;;;;;;;;;;;18.62;47.77;102376.34;5187218;27;19929;-56
2023/01/03 10:17:43;;;;;;;;;;;;;;;18.62;47.43;102370.84;5189647;27;19929;-56
2023/01/03 10:20:12;;;;;;;;;;;;;;;18.61;47.44;102378.28;5189639;27;20006;-56
2023/01/03 10:22:38;;;;;;;;;;;;;;;18.62;47.72;102373.59;5189658;27;19965;-56
2023/01/03 10:27:43;;;;;;;;;;;;;;;18.61;47.75;102367.25;5189931;27;19925;-56
2023/01/03 10:30:11;;;;;;;;;;;;;;;18.62;47.63;102370.84;5149920;27;19946;-56
2023/01/03 10:32:57;;;;;;;;;;;;;;;18.62;47.45;102368.06;5168733;27;19923;-56
2023/01/03 10:35:26;;;;;;;;;;;;;;;18.61;47.60;102367.25;5172609;27;19933;-56
2023/01/03 10:37:53;;;;;;;;;;;;;;;18.62;47.63;102368.06;5189858;27;19931;-56
2023/01/03 10:40:18;;;;;;;;;;;;;;;18.61;47.71;102363.63;5189413;27;20389;-56
2023/01/03 10:42:44;;;;;;;;;;;;;;;18.62;47.69;102360.63;5189353;27;19923;-56
2023/01/03 10:45:13;;;;;;;;;;;;;;;18.62;47.58;102359.78;5189306;27;19967;-56
2023/01/03 10:47:38;;;;;;;;;;;;;;;18.62;47.46;102363.38;5189751;27;19923;-56
2023/01/03 10:50:04;;;;;;;;;;;;;;;18.63;47.63;102365.06;5189645;27;20293;-56
2023/01/03 10:52:31;;;;;;;;;;;;;;;18.61;47.56;102358.97;5189434;27;20282;-56
2023/01/03 10:54:58;;;;;;;;;;;;;;;18.62;47.70;102360.63;5169632;27;19923;-56
2023/01/03 10:57:32;;;;;;;;;;;;;;;18.62;47.65;102365.31;5170648;27;19923;-56
2023/01/03 10:59:58;;;;;;;;;;;;;;;18.62;47.59;102360.63;5169986;27;19948;-56
2023/01/03 11:02:23;;;;;;;;;;;;;;;18.61;47.44;102358.97;5185734;27;19923;-56
2023/01/03 11:05:03;;;;;;;;;;;;;;;18.62;47.68;102357.88;5167920;27;19923;-56
2023/01/03 11:07:28;;;;;;;;;;;;;;;18.61;47.74;102350.69;5168244;27;19964;-56
2023/01/03 11:09:55;;;;;;;;;;;;;;;18.63;47.72;102353.19;5167758;27;19930;-56
2023/01/03 11:12:29;;;;;;;;;;;;;;;18.62;47.60;102349.59;5149523;27;19923;-56
2023/01/03 11:14:56;;;;;;;;;;;;;;;18.62;47.69;102348.75;5167216;27;19923;-56
2023/01/03 11:17:22;;;;;;;;;;;;;;;18.62;47.43;102346.00;5149312;27;19923;-56
2023/01/03 11:19:48;;;;;;;;;;;;;;;18.62;47.65;102352.34;5149238;27;19968;-56
2023/01/03 11:22:33;;;;;;;;;;;;;;;18.62;47.38;102348.75;5149272;27;19930;-56
2023/01/03 11:27:52;;;;;;;;;;;;;;;18.63;47.59;102354.03;5189998;27;19945;-56
2023/01/03 11:30:35;;;;;;;;;;;;;;;18.62;47.45;102348.75;5189441;27;19989;-56
2023/01/03 11:33:14;;;;;;;;;;;;;;;18.63;47.49;102353.19;5189815;27;19930;-56
2023/01/03 11:36:00;;;;;;;;;;;;;;;18.63;47.40;102350.44;5176907;27;19923;-56
2023/01/03 11:38:29;;;;;;;;;;;;;;;18.63;47.63;102344.91;5153022;27;19930;-56
2023/01/03 11:41:14;;;;;;;;;;;;;;;18.61;47.43;102333.25;5168332;27;19930;-56
2023/01/03 11:44:00;;;;;;;;;;;;;;;18.61;47.40;102336.88;5152721;27;19934;-56
2023/01/03 11:46:45;;;;;;;;;;;;;;;18.62;47.42;102334.97;5152244;27;19923;-56
2023/01/03 11:49:31;;;;;;;;;;;;;;;18.62;47.34;102335.78;5152663;27;20387;-56
2023/01/03 11:52:00;;;;;;;;;;;;;;;18.62;47.63;102334.97;5152809;27;20011;-56
2023/01/03 11:54:33;;;;;;;;;;;;;;;18.62;47.62;102327.53;5167811;27;20322;-56
2023/01/03 11:56:59;;;;;;;;;;;;;;;18.62;47.42;102310.97;5168633;27;20459;-57
2023/01/03 11:59:34;;;;;;;;;;;;;;;18.62;47.36;102321.16;5167842;27;19927;-55
2023/01/03 12:02:20;;;;;;;;;;;;;;;18.62;47.67;102313.72;5168161;27;20262;-56
2023/01/03 12:05:06;;;;;;;;;;;;;;;18.62;47.62;102315.66;5131486;27;20050;-56
2023/01/03 12:07:46;;;;;;;;;;;;;;;18.63;47.54;102301.59;5131885;27;19966;-56
2023/01/03 12:10:33;;;;;;;;;;;;;;;18.63;47.67;102300.75;5147681;27;20363;-56
2023/01/03 12:13:03;;;;;;;;;;;;;;;18.62;47.69;102301.84;5131504;27;19927;-56
2023/01/03 12:15:44;;;;;;;;;;;;;;;18.63;47.37;102289.72;5146692;27;19934;-56
2023/01/03 12:18:30;;;;;;;;;;;;;;;18.63;47.44;102292.47;5147145;27;19927;-56
2023/01/03 12:20:57;;;;;;;;;;;;;;;18.62;47.46;102285.28;5131138;27;19953;-56
2023/01/03 12:23:32;;;;;;;;;;;;;;;18.62;47.68;102288.88;5146629;27;19930;-56
2023/01/03 12:25:59;;;;;;;;;;;;;;;18.63;47.50;102289.72;5146807;27;19923;-56
2023/01/03 12:28:27;;;;;;;;;;;;;;;18.63;47.50;102279.53;5147011;27;19923;-56
2023/01/03 12:30:56;;;;;;;;;;;;;;;18.63;47.61;102282.28;5128053;27;19927;-56
2023/01/03 12:36:27;;;;;;;;;;;;;;;18.61;47.47;102276.19;5189287;27;20400;-56
2023/01/03 12:38:58;;;;;;;;;;;;;;;18.62;47.36;102280.63;5153420;27;19962;-56
2023/01/03 12:41:43;;;;;;;;;;;;;;;18.63;47.52;102282.28;5149918;27;19923;-56
2023/01/03 12:44:11;;;;;;;;;;;;;;;18.63;47.44;102278.69;5152934;27;20405;-56
2023/01/03 12:46:39;;;;;;;;;;;;;;;18.63;47.41;102273.16;5167889;27;19944;-56
2023/01/03 12:49:09;;;;;;;;;;;;;;;18.62;47.36;102266.81;5170510;27;20351;-56
2023/01/03 12:51:35;;;;;;;;;;;;;;;18.62;47.45;102264.06;5189311;27;19923;-56
2023/01/03 12:56:40;;;;;;;;;;;;;;;18.62;47.44;102271.50;5189769;27;20464;-56
2023/01/03 12:59:08;;;;;;;;;;;;;;;18.62;47.60;102263.22;5177306;27;19927;-56
2023/01/03 13:01:38;;;;;;;;;;;;;;;18.62;47.40;102264.06;5150102;27;19973;-56
2023/01/03 13:04:07;;;;;;;;;;;;;;;18.62;47.71;102269.56;5131846;27;20059;-56
2023/01/03 13:06:34;;;;;;;;;;;;;;;18.62;47.65;102269.56;5147648;27;19923;-56
2023/01/03 13:09:03;;;;;;;;;;;;;;;18.62;47.60;102269.56;5149953;27;19946;-56
2023/01/03 13:14:04;;;;;;;;;;;;;;;18.63;47.68;102278.69;5189940;27;19929;-56
2023/01/03 13:16:36;;;;;;;;;;;;;;;18.63;47.65;102275.94;5151684;27;19979;-56
2023/01/03 13:19:21;;;;;;;;;;;;;;;18.63;47.40;102270.41;5150192;27;19977;-56
2023/01/03 13:21:49;;;;;;;;;;;;;;;18.62;47.78;102275.09;5153150;27;19975;-56
2023/01/03 13:24:35;;;;;;;;;;;;;;;18.62;47.30;102269.56;5149207;27;19926;-56
2023/01/03 13:32:26;;;;;;;;;;;;;;;18.62;47.59;102258.53;5190121;27;19925;-56
2023/01/03 13:34:55;;;;;;;;;;;;;;;18.63;47.54;102257.44;5188983;27;19922;-56
2023/01/03 13:37:22;;;;;;;;;;;;;;;18.62;47.52;102253.03;5190134;27;19991;-56
2023/01/03 13:39:51;;;;;;;;;;;;;;;18.62;47.63;102243.91;5189153;27;19923;-56
2023/01/03 13:42:36;;;;;;;;;;;;;;;18.63;47.69;102253.84;5189690;27;19927;-56
2023/01/03 13:45:21;;;;;;;;;;;;;;;18.62;47.48;102254.94;5170651;27;19937;-56
2023/01/03 13:47:47;;;;;;;;;;;;;;;18.63;47.40;102251.09;5173970;27;19926;-56
2023/01/03 13:50:29;;;;;;;;;;;;;;;18.62;47.38;102244.75;5170892;27;20472;-56
2023/01/03 13:52:56;;;;;;;;;;;;;;;18.62;47.61;102243.91;5189641;27;19923;-56
2023/01/03 13:55:37;;;;;;;;;;;;;;;18.62;47.56;102235.63;5188535;27;19922;-56
2023/01/03 13:58:03;;;;;;;;;;;;;;;18.63;47.33;102249.16;5170573;27;20160;-56
2023/01/03 14:00:29;;;;;;;;;;;;;;;18.63;47.49;102253.84;5188962;27;19923;-56